Amelia, Nebraska
Current Conditions -  °F | °C
As of 3:55 AM on Tuesday 21 Oct 2014 (Local Time) from KONL Reporting Station
Clear Clear  
Wind Chill: 46°   Ceiling: Unl
Heat Index: 49°   Visibility: 10mi
Dew Point: 42°   Wind: 7mph
Humidity: 76%   Direction: 160°SSE
Pressure: 30.03"   Gusts: NA
Location:  42.24°N, 98.91°W
Report Text: KONL 210855Z AUTO 16006KT 10SM CLR 10/06 A3003 RMK AO2 T00950055
Loading
Personal Weather Stations






























Interactive Weather Map
Tropical Storm Tracking
New forecast layout! Learn more

10-Day Weather Forecast

Advertisements
Track Severe Weather on mobile